createdAt,value
2022-09-14T00:01:56.487Z,0
2022-09-14T00:03:58.348Z,0
2022-09-14T00:05:59.911Z,0
2022-09-14T00:08:01.347Z,0
2022-09-14T00:10:02.627Z,0
2022-09-14T00:12:03.978Z,0
2022-09-14T00:14:05.656Z,0
2022-09-14T00:16:06.883Z,0
2022-09-14T00:18:08.276Z,0
2022-09-14T00:20:09.685Z,0
2022-09-14T00:22:11.478Z,0
2022-09-14T00:24:12.637Z,0
2022-09-14T00:26:14.053Z,0
2022-09-14T00:28:15.217Z,0
2022-09-14T00:30:16.913Z,0
2022-09-14T00:32:18.088Z,0
2022-09-14T00:34:19.138Z,0
2022-09-14T00:36:20.478Z,0
2022-09-14T00:38:21.695Z,0
2022-09-14T00:40:22.665Z,0
2022-09-14T00:42:24.095Z,0
2022-09-14T00:44:25.473Z,1.263
2022-09-14T00:46:26.858Z,0
2022-09-14T00:48:28.092Z,2.808
2022-09-14T00:50:29.249Z,0.28
2022-09-14T00:52:30.286Z,0.561
2022-09-14T00:54:31.926Z,1.544
2022-09-14T00:56:33.626Z,0
2022-09-14T00:58:35.484Z,0
2022-09-14T01:00:36.696Z,0
2022-09-14T01:02:37.624Z,0
2022-09-14T01:04:39.234Z,0
2022-09-14T01:06:40.191Z,0
2022-09-14T01:08:41.780Z,0
2022-09-14T01:12:44.947Z,0
2022-09-14T01:14:46.117Z,0
2022-09-14T01:16:47.974Z,0
2022-09-14T01:18:49.416Z,0
2022-09-14T01:22:52.134Z,0
2022-09-14T01:24:53.888Z,0
2022-09-14T01:26:55.738Z,0
2022-09-14T01:28:56.796Z,0
2022-09-14T01:30:58.600Z,0
2022-09-14T01:35:01.240Z,0.561
2022-09-14T01:37:02.979Z,0.842
2022-09-14T01:39:04.405Z,2.106
2022-09-14T01:41:05.946Z,0
2022-09-14T01:43:07.363Z,0.28
2022-09-14T01:45:08.841Z,0.28
2022-09-14T01:47:09.873Z,0
2022-09-14T01:49:10.980Z,0
2022-09-14T01:53:13.545Z,0.842
2022-09-14T01:55:14.525Z,0
2022-09-14T01:57:16.204Z,0
2022-09-14T01:59:17.853Z,0.982
2022-09-14T02:01:19.038Z,0
2022-09-14T02:03:20.744Z,0
2022-09-14T02:05:21.692Z,0
2022-09-14T02:07:23.515Z,0
2022-09-14T02:09:24.802Z,0.421
2022-09-14T02:11:25.877Z,0.842
2022-09-14T02:13:27.470Z,2.667
2022-09-14T02:15:28.486Z,1.544
2022-09-14T02:17:29.616Z,2.106
2022-09-14T02:19:30.936Z,1.544
2022-09-14T02:21:32.385Z,0
2022-09-14T02:23:33.340Z,0.842
2022-09-14T02:25:34.452Z,2.948
2022-09-14T02:27:35.944Z,0
2022-09-14T02:29:37.532Z,0
2022-09-14T02:31:39.102Z,0
2022-09-14T02:33:40.774Z,0
2022-09-14T02:35:42.482Z,0
2022-09-14T02:37:43.571Z,0
2022-09-14T02:39:45.368Z,1.404
2022-09-14T02:41:46.241Z,0.561
2022-09-14T02:43:48.131Z,0.842
2022-09-14T02:45:49.242Z,2.106
2022-09-14T02:47:50.210Z,0.421
2022-09-14T02:49:51.179Z,0
2022-09-14T02:51:52.970Z,0
2022-09-14T02:53:54.235Z,0.982
2022-09-14T02:55:55.315Z,1.684
2022-09-14T02:57:56.749Z,2.246
2022-09-14T02:59:58.370Z,1.825
2022-09-14T03:01:59.441Z,0
2022-09-14T03:04:01.267Z,0
2022-09-14T03:06:03.104Z,1.263
2022-09-14T03:08:03.993Z,0.842
2022-09-14T03:10:05.177Z,1.965
2022-09-14T03:12:06.247Z,2.667
2022-09-14T03:14:07.405Z,2.667
2022-09-14T03:16:08.803Z,3.79
2022-09-14T03:18:14.222Z,3.369
2022-09-14T03:20:12.082Z,5.194
2022-09-14T03:22:14.045Z,2.386
2022-09-14T03:24:15.194Z,1.965
2022-09-14T03:26:17.033Z,1.263
2022-09-14T03:28:18.516Z,0
2022-09-14T03:30:20.270Z,1.825
2022-09-14T03:32:21.418Z,0
2022-09-14T03:36:23.819Z,0.421
2022-09-14T03:38:25.131Z,1.965
2022-09-14T03:40:26.922Z,0.982
2022-09-14T03:42:28.357Z,2.106
2022-09-14T03:46:31.399Z,0
2022-09-14T03:48:32.878Z,0
2022-09-14T03:50:34.016Z,0
2022-09-14T03:52:35.480Z,0
2022-09-14T03:54:37.062Z,0
2022-09-14T03:56:38.101Z,1.404
2022-09-14T03:58:39.890Z,0
2022-09-14T04:00:40.965Z,1.825
2022-09-14T04:02:42.765Z,1.123
2022-09-14T04:04:44.479Z,0
2022-09-14T04:06:45.380Z,0
2022-09-14T04:08:47.267Z,0
2022-09-14T04:10:48.843Z,0.421
2022-09-14T04:12:50.682Z,4.071
2022-09-14T04:14:52.318Z,2.527
2022-09-14T04:18:54.527Z,4.492
2022-09-14T04:20:55.687Z,4.071
2022-09-14T04:22:56.626Z,3.229
2022-09-14T04:24:57.716Z,6.598
2022-09-14T04:29:00.833Z,4.914
2022-09-14T04:31:02.617Z,0.842
2022-09-14T04:33:04.079Z,2.527
2022-09-14T04:35:05.103Z,2.246
2022-09-14T04:37:06.133Z,1.825
2022-09-14T04:39:07.859Z,0
2022-09-14T04:41:17.397Z,0
2022-09-14T04:43:11.089Z,0
2022-09-14T04:45:12.753Z,2.386
2022-09-14T04:47:13.932Z,1.684
2022-09-14T04:51:16.435Z,0
2022-09-14T04:53:17.365Z,0
2022-09-14T04:55:18.586Z,0
2022-09-14T04:57:19.943Z,0
2022-09-14T05:01:22.841Z,0
2022-09-14T05:03:24.531Z,0
2022-09-14T05:05:25.561Z,0
2022-09-14T05:07:26.712Z,0
2022-09-14T05:09:27.705Z,0
2022-09-14T05:11:29.042Z,0
2022-09-14T05:13:30.247Z,0.28
2022-09-14T05:15:31.823Z,0.842
2022-09-14T05:17:33.120Z,1.263
2022-09-14T05:19:34.971Z,0
2022-09-14T05:21:35.846Z,0
2022-09-14T05:23:36.988Z,0
2022-09-14T05:25:37.850Z,0
2022-09-14T05:27:39.246Z,0
2022-09-14T05:29:40.176Z,0
2022-09-14T05:31:41.623Z,0
2022-09-14T05:33:42.503Z,0
2022-09-14T05:35:44.191Z,0
2022-09-14T05:37:45.153Z,0
2022-09-14T05:39:46.428Z,0
2022-09-14T05:41:47.942Z,0
2022-09-14T05:43:49.555Z,0
2022-09-14T05:45:51.338Z,0
2022-09-14T05:47:52.310Z,0
2022-09-14T05:49:53.998Z,0
2022-09-14T05:51:55.344Z,0
2022-09-14T05:53:56.920Z,0
2022-09-14T05:55:58.572Z,0
2022-09-14T06:00:01.659Z,0
2022-09-14T06:02:02.785Z,0
2022-09-14T06:02:46.546Z,0
2022-09-14T06:04:48.445Z,0.561
2022-09-14T06:07:01.626Z,0
2022-09-14T06:08:50.144Z,0
2022-09-14T06:10:51.088Z,0
2022-09-14T06:12:55.333Z,0
2022-09-14T06:16:55.250Z,0
2022-09-14T06:18:56.870Z,0
2022-09-14T06:20:57.821Z,2.667
2022-09-14T06:22:59.233Z,0
2022-09-14T06:25:00.643Z,0
2022-09-14T06:27:01.792Z,0.421
2022-09-14T06:29:02.792Z,0
2022-09-14T06:31:03.829Z,0.14
2022-09-14T06:33:04.896Z,0
2022-09-14T06:37:07.334Z,2.106
2022-09-14T06:39:08.762Z,0.842
2022-09-14T06:41:10.129Z,1.123
2022-09-14T06:43:11.493Z,1.825
2022-09-14T06:47:14.457Z,0.28
2022-09-14T06:49:16.079Z,4.212
2022-09-14T06:51:17.204Z,0.702
2022-09-14T06:53:18.263Z,3.229
2022-09-14T06:55:19.328Z,0.421
2022-09-14T06:57:20.283Z,1.263
2022-09-14T06:59:21.457Z,0
2022-09-14T07:01:22.574Z,0
2022-09-14T07:03:24.307Z,0
2022-09-14T07:05:25.500Z,0
2022-09-14T07:07:27.189Z,0.28
2022-09-14T07:09:28.721Z,0.702
2022-09-14T07:11:29.903Z,0
2022-09-14T07:13:31.404Z,0
2022-09-14T07:15:32.245Z,0
2022-09-14T07:17:33.352Z,0
2022-09-14T07:19:34.923Z,0
2022-09-14T07:21:36.131Z,0
2022-09-14T07:23:37.005Z,0
2022-09-14T07:25:38.316Z,0
2022-09-14T07:27:40.043Z,0.28
2022-09-14T07:29:41.419Z,0
2022-09-14T07:31:42.372Z,1.825
2022-09-14T07:35:45.044Z,0.842
2022-09-14T07:37:46.041Z,1.263
2022-09-14T07:39:47.465Z,0
2022-09-14T07:41:48.753Z,0
2022-09-14T07:45:51.985Z,0.14
2022-09-14T07:47:52.889Z,0.702
2022-09-14T07:49:54.099Z,0
2022-09-14T07:51:55.335Z,1.684
2022-09-14T07:53:56.550Z,4.071
2022-09-14T07:55:58.366Z,4.071
2022-09-14T07:57:59.466Z,3.79
2022-09-14T08:00:00.705Z,1.123
2022-09-14T08:02:01.949Z,1.544
2022-09-14T08:04:05.532Z,1.825
2022-09-14T08:06:05.055Z,5.475
2022-09-14T08:08:05.941Z,2.808
2022-09-14T08:10:07.359Z,3.229
2022-09-14T08:12:08.578Z,3.931
2022-09-14T08:14:10.410Z,4.492
2022-09-14T08:16:11.401Z,6.177
2022-09-14T08:18:12.389Z,6.879
2022-09-14T08:20:13.780Z,7.862
2022-09-14T08:22:15.223Z,1.123
2022-09-14T08:24:16.481Z,4.633
2022-09-14T08:26:18.106Z,4.492
2022-09-14T08:28:19.784Z,0.421
2022-09-14T08:30:21.104Z,5.054
2022-09-14T08:32:22.148Z,2.527
2022-09-14T08:34:23.560Z,2.808
2022-09-14T08:36:24.929Z,0.842
2022-09-14T08:38:26.596Z,5.054
2022-09-14T08:40:27.542Z,4.633
2022-09-14T08:42:29.166Z,5.475
2022-09-14T08:44:30.830Z,5.616
2022-09-14T08:46:31.918Z,5.335
2022-09-14T08:50:38.241Z,1.263
2022-09-14T08:52:36.341Z,6.879
2022-09-14T08:54:37.317Z,2.948
2022-09-14T08:56:39.010Z,4.492
2022-09-14T09:00:41.857Z,4.914
2022-09-14T09:02:43.658Z,5.896
2022-09-14T09:04:44.751Z,6.739
2022-09-14T09:06:45.645Z,7.862
2022-09-14T09:08:47.281Z,3.369
2022-09-14T09:10:48.772Z,1.404
2022-09-14T09:12:49.704Z,9.266
2022-09-14T09:14:50.945Z,3.369
2022-09-14T09:16:51.820Z,1.404
2022-09-14T09:18:52.924Z,1.123
2022-09-14T09:20:54.531Z,0.421
2022-09-14T09:22:55.935Z,3.65
2022-09-14T09:24:57.627Z,3.931
2022-09-14T09:26:58.948Z,4.212
2022-09-14T09:28:59.899Z,3.51
2022-09-14T09:31:00.893Z,5.054
2022-09-14T09:33:01.930Z,3.65
2022-09-14T09:35:02.959Z,2.667
2022-09-14T09:37:04.423Z,3.65
2022-09-14T09:39:05.751Z,7.02
2022-09-14T09:41:06.556Z,4.212
2022-09-14T09:43:07.857Z,5.475
2022-09-14T09:45:09.127Z,2.106
2022-09-14T09:47:10.707Z,4.071
2022-09-14T09:49:11.925Z,1.404
2022-09-14T09:51:13.712Z,1.263
2022-09-14T09:53:14.645Z,0
2022-09-14T09:55:15.890Z,0.842
2022-09-14T09:59:17.940Z,0
2022-09-14T10:01:19.364Z,0.982
2022-09-14T10:03:20.548Z,0
2022-09-14T10:05:22.221Z,0
2022-09-14T10:07:23.229Z,0.421
2022-09-14T10:09:24.083Z,1.263
2022-09-14T10:11:25.090Z,0
2022-09-14T10:13:26.011Z,0
2022-09-14T10:15:26.883Z,0
2022-09-14T10:17:28.435Z,0
2022-09-14T10:19:29.548Z,0.702
2022-09-14T10:21:30.981Z,1.965
2022-09-14T10:23:31.828Z,0.421
2022-09-14T10:25:33.092Z,0
2022-09-14T10:27:37.683Z,0.561
2022-09-14T10:29:35.236Z,0
2022-09-14T10:31:36.589Z,0.842
2022-09-14T10:33:37.585Z,2.667
2022-09-14T10:35:38.972Z,2.386
2022-09-14T10:37:40.057Z,0
2022-09-14T10:39:41.847Z,0.14
2022-09-14T10:41:43.473Z,0.14
2022-09-14T10:43:45.146Z,3.51
2022-09-14T10:45:46.296Z,2.246
2022-09-14T10:47:47.567Z,0.561
2022-09-14T10:49:49.235Z,2.386
2022-09-14T10:51:50.335Z,1.263
2022-09-14T10:53:51.457Z,0
2022-09-14T10:57:53.782Z,0.702
2022-09-14T10:59:54.635Z,4.773
2022-09-14T11:01:56.229Z,3.088
2022-09-14T11:03:57.691Z,4.914
2022-09-14T11:05:59.375Z,0.842
2022-09-14T11:08:00.383Z,2.667
2022-09-14T11:10:02.077Z,2.667
2022-09-14T11:12:03.369Z,3.65
2022-09-14T11:14:05.759Z,5.194
2022-09-14T11:16:07.086Z,1.123
2022-09-14T11:18:08.173Z,2.527
2022-09-14T11:20:09.295Z,4.914
2022-09-14T11:22:11.051Z,6.037
2022-09-14T11:24:12.699Z,2.527
2022-09-14T11:26:13.936Z,3.229
2022-09-14T11:30:17.141Z,4.071
2022-09-14T11:32:20.724Z,3.088
2022-09-14T11:34:20.396Z,4.633
2022-09-14T11:36:21.890Z,1.965
2022-09-14T11:38:24.268Z,2.948
2022-09-14T11:40:25.665Z,1.684
2022-09-14T11:42:26.632Z,0.982
2022-09-14T11:44:27.714Z,4.212
2022-09-14T11:46:29.392Z,5.756
2022-09-14T11:48:42.198Z,3.229
2022-09-14T11:50:31.541Z,6.037
2022-09-14T11:52:33.838Z,2.667
2022-09-14T11:54:34.720Z,5.475
2022-09-14T11:56:36.287Z,9.266
2022-09-14T11:58:37.632Z,7.16
2022-09-14T12:02:39.803Z,5.616
2022-09-14T12:04:40.554Z,2.386
2022-09-14T12:06:42.133Z,4.492
2022-09-14T12:08:43.468Z,4.212
2022-09-14T12:10:45.890Z,2.808
2022-09-14T12:12:45.176Z,1.123
2022-09-14T12:14:46.491Z,2.948
2022-09-14T12:16:47.647Z,4.492
2022-09-14T12:18:49.279Z,4.212
2022-09-14T12:20:50.426Z,3.51
2022-09-14T12:22:51.613Z,3.369
2022-09-14T12:24:53.133Z,2.808
2022-09-14T12:26:53.896Z,2.386
2022-09-14T12:28:55.043Z,4.633
2022-09-14T12:30:56.552Z,6.879
2022-09-14T12:32:57.296Z,3.79
2022-09-14T12:34:58.457Z,4.492
2022-09-14T12:36:59.734Z,4.633
2022-09-14T12:39:01.499Z,3.79
2022-09-14T12:41:02.514Z,1.404
2022-09-14T12:43:04.037Z,5.475
2022-09-14T12:45:05.695Z,3.369
2022-09-14T12:47:07.022Z,1.965
2022-09-14T12:47:50.717Z,1.404
2022-09-14T12:49:51.539Z,0.421
2022-09-14T12:51:53.038Z,0
2022-09-14T12:53:54.812Z,0.421
2022-09-14T12:55:55.947Z,0.421
2022-09-14T12:57:56.843Z,0.842
2022-09-14T12:59:57.849Z,1.404
2022-09-14T13:01:59.525Z,1.404
2022-09-14T13:06:01.570Z,0.561
2022-09-14T13:08:02.759Z,0.28
2022-09-14T13:10:03.870Z,3.229
2022-09-14T13:12:05.123Z,0.28
2022-09-14T13:16:07.700Z,4.773
2022-09-14T13:18:08.665Z,0.842
2022-09-14T13:22:11.818Z,2.246
2022-09-14T13:24:13.458Z,2.808
2022-09-14T13:26:14.568Z,1.123
2022-09-14T13:28:15.647Z,1.544
2022-09-14T13:30:16.623Z,0
2022-09-14T13:34:19.260Z,0
2022-09-14T13:36:20.679Z,0.421
2022-09-14T13:38:22.405Z,0.842
2022-09-14T13:40:23.519Z,0
2022-09-14T13:42:24.327Z,2.386
2022-09-14T13:44:25.896Z,0.702
2022-09-14T13:46:27.334Z,3.51
2022-09-14T13:48:28.369Z,2.808
2022-09-14T13:50:29.761Z,0
2022-09-14T13:52:50.021Z,1.263
2022-09-14T13:54:31.711Z,1.263
2022-09-14T13:56:32.934Z,2.948
2022-09-14T13:58:35.755Z,0
2022-09-14T14:00:35.516Z,0
2022-09-14T14:02:36.425Z,0
2022-09-14T14:04:37.319Z,0
2022-09-14T14:06:38.228Z,1.263
2022-09-14T14:08:39.929Z,0
2022-09-14T14:10:41.422Z,0
2022-09-14T14:14:43.887Z,0
2022-09-14T14:16:45.141Z,0
2022-09-14T14:18:46.288Z,0.14
2022-09-14T14:20:47.840Z,0.702
2022-09-14T14:22:49.459Z,1.404
2022-09-14T14:25:12.150Z,5.054
2022-09-14T14:26:51.717Z,13.338
2022-09-14T14:28:52.996Z,16.988
2022-09-14T14:30:54.191Z,14.461
2022-09-14T14:32:56.025Z,16.286
2022-09-14T14:34:57.540Z,11.091
2022-09-14T14:36:58.418Z,6.458
2022-09-14T14:39:00.183Z,2.948
2022-09-14T14:41:01.969Z,4.914
2022-09-14T14:43:02.898Z,13.057
2022-09-14T14:47:06.310Z,2.527
2022-09-14T14:49:07.608Z,5.475
2022-09-14T14:51:08.726Z,4.212
2022-09-14T14:53:10.163Z,11.793
2022-09-14T14:57:12.871Z,3.931
2022-09-14T14:59:14.101Z,9.406
2022-09-14T15:01:15.571Z,10.249
2022-09-14T15:03:16.655Z,10.108
2022-09-14T15:05:18.181Z,4.212
2022-09-14T15:07:19.091Z,4.914
2022-09-14T15:09:20.367Z,4.773
2022-09-14T15:11:22.089Z,2.527
2022-09-14T15:13:23.407Z,5.054
2022-09-14T15:15:24.340Z,2.948
2022-09-14T15:17:25.382Z,1.965
2022-09-14T15:19:26.805Z,0.421
2022-09-14T15:21:27.877Z,3.369
2022-09-14T15:23:28.861Z,3.931
2022-09-14T15:25:30.400Z,4.633
2022-09-14T15:27:32.035Z,4.914
2022-09-14T15:29:33.446Z,4.071
2022-09-14T15:31:35.137Z,10.108
2022-09-14T15:35:38.303Z,9.266
2022-09-14T15:37:39.124Z,4.492
2022-09-14T15:39:40.399Z,5.616
2022-09-14T15:41:41.497Z,4.773
2022-09-14T15:43:43.129Z,11.653
2022-09-14T15:45:44.877Z,8.143
2022-09-14T15:47:46.151Z,4.071
2022-09-14T15:49:47.096Z,6.458
2022-09-14T15:51:48.220Z,9.968
2022-09-14T15:53:49.986Z,7.722
2022-09-14T15:55:51.324Z,6.879
2022-09-14T15:57:53.104Z,4.633
2022-09-14T15:59:54.459Z,4.352
2022-09-14T16:01:56.064Z,2.527
2022-09-14T16:03:57.781Z,6.037
2022-09-14T16:05:58.771Z,6.458
2022-09-14T16:08:00.075Z,4.352
2022-09-14T16:10:01.669Z,6.458
2022-09-14T16:12:02.610Z,3.369
2022-09-14T16:14:04.032Z,4.492
2022-09-14T16:16:05.563Z,3.51
2022-09-14T16:18:06.671Z,5.616
2022-09-14T16:20:07.623Z,6.458
2022-09-14T16:22:08.561Z,5.335
2022-09-14T16:24:09.570Z,4.914
2022-09-14T16:28:12.728Z,2.106
2022-09-14T16:30:13.771Z,1.123
2022-09-14T16:32:15.268Z,1.123
2022-09-14T16:34:16.815Z,4.633
2022-09-14T16:38:19.562Z,3.65
2022-09-14T16:40:20.734Z,2.667
2022-09-14T16:42:21.856Z,1.544
2022-09-14T16:44:23.538Z,4.352
2022-09-14T16:46:24.701Z,0.982
2022-09-14T16:50:27.938Z,2.106
2022-09-14T16:52:29.325Z,1.544
2022-09-14T16:54:31.037Z,2.808
2022-09-14T16:56:32.346Z,5.756
2022-09-14T16:58:33.350Z,4.352
2022-09-14T17:00:35.216Z,5.475
2022-09-14T17:02:36.644Z,2.527
2022-09-14T17:04:38.166Z,2.667
2022-09-14T17:06:39.023Z,6.037
2022-09-14T17:10:41.594Z,5.616
2022-09-14T17:12:42.470Z,7.02
2022-09-14T17:14:43.615Z,5.616
2022-09-14T17:16:44.677Z,3.369
2022-09-14T17:20:47.544Z,2.667
2022-09-14T17:22:48.629Z,3.931
2022-09-14T17:24:50.432Z,6.458
2022-09-14T17:26:51.416Z,6.598
2022-09-14T17:28:53.197Z,7.16
2022-09-14T17:30:54.715Z,3.65
2022-09-14T17:32:56.044Z,5.896
2022-09-14T17:34:57.198Z,1.404
2022-09-14T17:36:58.578Z,3.65
2022-09-14T17:39:00.322Z,0.982
2022-09-14T17:41:01.281Z,3.65
2022-09-14T17:43:02.392Z,4.492
2022-09-14T17:45:03.308Z,2.948
2022-09-14T17:47:05.189Z,1.965
2022-09-14T17:49:06.213Z,4.071
2022-09-14T17:51:07.598Z,0.421
2022-09-14T17:53:09.370Z,1.404
2022-09-14T17:55:10.293Z,0.28
2022-09-14T17:57:11.158Z,1.684
2022-09-14T17:59:12.885Z,0
2022-09-14T18:01:14.275Z,0
2022-09-14T18:03:15.942Z,2.948
2022-09-14T18:05:17.536Z,1.544
2022-09-14T18:07:18.502Z,3.369
2022-09-14T18:09:19.939Z,1.825
2022-09-14T18:11:21.699Z,2.948
2022-09-14T18:13:23.535Z,3.369
2022-09-14T18:15:25.178Z,0.561
2022-09-14T18:17:27.038Z,3.088
2022-09-14T18:19:28.178Z,3.51
2022-09-14T18:21:29.871Z,0.702
2022-09-14T18:23:31.412Z,0.842
2022-09-14T18:25:33.161Z,0.702
2022-09-14T18:27:34.367Z,3.088
2022-09-14T18:29:36.082Z,2.948
2022-09-14T18:31:37.981Z,3.931
2022-09-14T18:33:39.616Z,0.982
2022-09-14T18:35:40.730Z,0.982
2022-09-14T18:37:42.366Z,0.14
2022-09-14T18:39:44.183Z,2.106
2022-09-14T18:41:45.045Z,4.773
2022-09-14T18:43:46.745Z,0.982
2022-09-14T18:45:47.927Z,2.246
2022-09-14T18:47:49.667Z,2.667
2022-09-14T18:51:51.971Z,0.14
2022-09-14T18:53:53.119Z,0
2022-09-14T18:55:54.434Z,0.421
2022-09-14T18:57:55.672Z,3.229
2022-09-14T19:01:58.430Z,1.123
2022-09-14T19:04:00.003Z,3.65
2022-09-14T19:06:01.168Z,2.948
2022-09-14T19:08:02.917Z,1.544
2022-09-14T19:10:06.107Z,0.842
2022-09-14T19:14:07.397Z,3.229
2022-09-14T19:16:09.310Z,5.335
2022-09-14T19:18:10.289Z,3.65
2022-09-14T19:20:11.582Z,5.475
2022-09-14T19:22:12.873Z,4.071
2022-09-14T19:24:14.642Z,4.633
2022-09-14T19:26:16.368Z,2.948
2022-09-14T19:28:17.305Z,3.51
2022-09-14T19:30:18.258Z,3.369
2022-09-14T19:33:03.703Z,1.544
2022-09-14T19:35:05.062Z,0.14
2022-09-14T19:39:08.548Z,0.14
2022-09-14T19:41:10.227Z,2.106
2022-09-14T19:43:11.891Z,0
2022-09-14T19:45:13.426Z,1.263
2022-09-14T19:47:14.958Z,0.14
2022-09-14T19:49:16.420Z,0
2022-09-14T19:51:17.301Z,0
2022-09-14T19:53:18.773Z,0.28
2022-09-14T19:55:19.736Z,0
2022-09-14T19:57:21.002Z,0
2022-09-14T19:59:22.072Z,1.825
2022-09-14T20:01:23.914Z,0.14
2022-09-14T20:03:25.260Z,2.667
2022-09-14T20:05:26.008Z,0
2022-09-14T20:07:26.970Z,1.263
2022-09-14T20:09:28.500Z,1.684
2022-09-14T20:11:29.915Z,0
2022-09-14T20:13:31.196Z,0
2022-09-14T20:15:32.949Z,0
2022-09-14T20:17:43.572Z,0
2022-09-14T20:21:36.828Z,0
2022-09-14T20:23:45.292Z,0.14
2022-09-14T20:25:39.584Z,0
2022-09-14T20:27:41.048Z,2.386
2022-09-14T20:29:42.022Z,2.667
2022-09-14T20:31:42.881Z,0
2022-09-14T20:33:44.730Z,1.544
2022-09-14T20:35:45.700Z,0.28
2022-09-14T20:37:47.368Z,1.965
2022-09-14T20:39:49.329Z,4.914
2022-09-14T20:41:49.345Z,1.825
2022-09-14T20:43:50.289Z,4.492
2022-09-14T20:45:52.145Z,4.633
2022-09-14T20:47:53.208Z,0.14
2022-09-14T20:49:54.677Z,0.28
2022-09-14T20:51:55.850Z,0
2022-09-14T20:53:56.752Z,0
2022-09-14T20:55:58.127Z,0.14
2022-09-14T20:57:59.690Z,1.684
2022-09-14T21:00:00.870Z,1.965
2022-09-14T21:02:05.253Z,3.088
2022-09-14T21:04:04.352Z,0.28
2022-09-14T21:06:05.321Z,0.842
2022-09-14T21:10:08.021Z,0
2022-09-14T21:12:09.280Z,0
2022-09-14T21:14:10.872Z,0
2022-09-14T21:16:12.267Z,0
2022-09-14T21:20:15.052Z,0
2022-09-14T21:22:16.445Z,0
2022-09-14T21:24:18.245Z,0
2022-09-14T21:26:19.783Z,0
2022-09-14T21:28:21.179Z,1.263
2022-09-14T21:32:24.527Z,0.982
2022-09-14T21:34:25.870Z,1.544
2022-09-14T21:36:26.836Z,0
2022-09-14T21:38:28.474Z,0.14
2022-09-14T21:40:29.839Z,0.982
2022-09-14T21:42:31.218Z,0
2022-09-14T21:44:32.178Z,0
2022-09-14T21:46:33.721Z,0
2022-09-14T21:48:35.415Z,1.544
2022-09-14T21:52:37.882Z,0
2022-09-14T21:54:39.231Z,1.544
2022-09-14T21:56:40.288Z,0.561
2022-09-14T21:58:41.321Z,0.28
2022-09-14T22:02:44.016Z,2.246
2022-09-14T22:04:45.682Z,0.982
2022-09-14T22:06:46.616Z,0.982
2022-09-14T22:08:48.161Z,4.492
2022-09-14T22:10:49.443Z,3.65
2022-09-14T22:12:50.456Z,1.404
2022-09-14T22:14:51.557Z,0.14
2022-09-14T22:16:53.351Z,0.28
2022-09-14T22:18:54.377Z,0.982
2022-09-14T22:20:56.058Z,0.421
2022-09-14T22:22:57.437Z,6.177
2022-09-14T22:24:58.487Z,1.263
2022-09-14T22:26:59.482Z,0
2022-09-14T22:29:01.082Z,0
2022-09-14T22:31:02.880Z,2.246
2022-09-14T22:33:03.867Z,1.825
2022-09-14T22:35:05.212Z,0
2022-09-14T22:37:06.757Z,0.28
2022-09-14T22:39:08.312Z,5.194
2022-09-14T22:41:09.324Z,0.14
2022-09-14T22:43:10.898Z,1.544
2022-09-14T22:45:11.966Z,2.386
2022-09-14T22:47:13.360Z,3.229
2022-09-14T22:49:15.012Z,0.842
2022-09-14T22:51:16.216Z,3.088
2022-09-14T22:53:17.160Z,1.544
2022-09-14T22:55:18.051Z,2.106
2022-09-14T22:57:19.497Z,2.948
2022-09-14T23:01:22.029Z,2.527
2022-09-14T23:03:23.677Z,0
2022-09-14T23:05:25.005Z,0.702
2022-09-14T23:07:26.004Z,0
2022-09-14T23:09:27.695Z,0
2022-09-14T23:11:28.894Z,1.123
2022-09-14T23:13:30.031Z,0
2022-09-14T23:15:30.963Z,0
2022-09-14T23:17:32.748Z,0
2022-09-14T23:19:34.385Z,0
2022-09-14T23:21:35.597Z,0
2022-09-14T23:23:36.812Z,0
2022-09-14T23:25:38.541Z,0
2022-09-14T23:27:39.840Z,1.123
2022-09-14T23:29:41.255Z,0.702
2022-09-14T23:33:44.212Z,1.544
2022-09-14T23:35:45.221Z,2.246
2022-09-14T23:37:46.772Z,0
2022-09-14T23:39:48.089Z,0
2022-09-14T23:43:50.816Z,0
2022-09-14T23:45:52.486Z,0
2022-09-14T23:47:53.372Z,0
2022-09-14T23:49:54.619Z,0
2022-09-14T23:51:56.251Z,0
2022-09-14T23:53:57.304Z,0
2022-09-14T23:55:58.851Z,0
2022-09-14T23:58:00.591Z,0
